Decoded Metar for LELN (LEON in SPAIN) (IATA:N/A) | Meteo·Mobile Aviation Weather
aviador You're here:

LELN Decoded Metar

LEON in SPAIN
Report Time2019-07-24 04:00:00
UTC Time2019-07-24 04:16:51
Flight Rules vfr VFR
Wind020° at 05 kt
W.Decomp.*RWY 05: 4.4 kt HW 2.3 kt LCW
RWY 06: 3.9 kt HW 3.1 kt LCW
Visibility9999 m
Phenomena:N/A
Clouds:N/A
Expected CloudBase > 2,400 ft AGL from Temp-Dew spread
CeilingNone
Temp17°C (ISA +8)
Dew Point11°C (68% RH)
AAT15.5°C
QNH1019 hPa
Density Alt3,914 ft
Elevation2,999 ft
Report Wrong Elevation
Raw Report
LELN 240400Z AUTO 02005KT 350V050 9999 NCD 17/11 Q1019=

Extra information for LELN:More info

Metar Taf Metar & Taf Last 4 Metars F.Rules Stats Wind Profile Meteogram Temp Stats Airport Information Weather charts Add Link Nearby VenuesMetar ALERT Operation Metar Decoded Social comments